Ischia Jet — IOBI — position and weather

sailwx.info

Track history (hours):
 
Tides and Currents Weather Stations Pressure Air Temp Water Temp Dewpoint Dewpoint Depression Visibility Wind Speed Wind Dir Waves Ship Positions

Ischia Jet

Last reported at 2017-Oct-19 16:20 UTC. Time now 2017-Oct-19 20:15 UTC.
Position N 40°40' E 014°24'.

Length 42 m; draft 1.2 m.

Type: Passenger vessel. MMSI: 247048700.

Date/timePositionNaut miles runAvg speedWind from/ knotsBaromVisibWave heightAir tempDewpointWater temp
2017-Oct-19 16:20N 40°40' E 014°24'412.8
2017-Oct-19 16:00N 40°37' E 014°20'4 5.4
2017-Oct-19 15:19N 40°34' E 014°22'5 5.0
2017-Oct-19 14:14N 40°37' E 014°28'8 5.1
2017-Oct-19 12:42N 40°36' E 014°18'418.2
2017-Oct-19 12:30N 40°38' E 014°23'3 1.0
2017-Oct-19 09:06N 40°35' E 014°24'4 3.8
2017-Oct-19 07:59N 40°36' E 014°30'910.2
2017-Oct-19 07:07N 40°36' E 014°18'325.5
2017-Oct-19 07:01N 40°38' E 014°21'3 0.2
2017-Oct-18 16:20N 40°40' E 014°24'5 4.8
2017-Oct-18 15:16N 40°35' E 014°26'0 0.1
2017-Oct-18 09:06N 40°35' E 014°25'2 2.0
2017-Oct-18 07:56N 40°35' E 014°28'8 9.4
2017-Oct-18 07:07N 40°36' E 014°18'326.0
2017-Oct-18 07:00N 40°38' E 014°21'4 0.3
2017-Oct-17 16:23N 40°40' E 014°25'514.2
2017-Oct-17 16:01N 40°37' E 014°19'5 7.2
2017-Oct-17 15:18N 40°35' E 014°25'4 3.8
2017-Oct-17 14:15N 40°37' E 014°29'8 3.3
2017-Oct-17 11:49N 40°36' E 014°18'412.4
2017-Oct-17 11:30N 40°38' E 014°23'4 1.5
2017-Oct-17 09:13N 40°34' E 014°23'6 4.7
2017-Oct-17 08:00N 40°36' E 014°30'910.7
2017-Oct-17 07:09N 40°36' E 014°18'323.6
2017-Oct-17 07:00N 40°38' E 014°22'2 0.2
2017-Oct-16 16:21N 40°40' E 014°24'411.8
2017-Oct-16 16:00N 40°38' E 014°20'5 7.0
2017-Oct-16 15:19N 40°35' E 014°25'4 3.4
2017-Oct-16 14:12N 40°37' E 014°29'1012.0
2017-Oct-16 13:23N 40°35' E 014°16'1025.2
2017-Oct-16 13:01N 40°45' E 014°17'0 0.2
2017-Oct-16 11:10N 40°45' E 014°16'425.3
2017-Oct-16 11:00N 40°41' E 014°16'9 4.8
2017-Oct-16 09:06N 40°35' E 014°25'3 2.6
2017-Oct-16 07:58N 40°35' E 014°29'910.7
2017-Oct-16 07:10N 40°36' E 014°17'425.0
2017-Oct-16 07:00N 40°38' E 014°21'3 0.2
2017-Oct-15 16:23N 40°40' E 014°24'5 4.8
2017-Oct-15 15:17N 40°35' E 014°25'8 4.7
2017-Oct-15 13:33N 40°33' E 014°14'0 0.0
2017-Oct-15 13:30N 40°33' E 014°14'0 0.0
2017-Oct-15 13:00N 40°33' E 014°14'714.3
2017-Oct-15 12:31N 40°38' E 014°21'510.8
2017-Oct-15 12:01N 40°35' E 014°16'2 3.4
2017-Oct-15 11:30N 40°33' E 014°14'0 0.0
2017-Oct-15 11:00N 40°33' E 014°14'0 0.0
2017-Oct-15 10:30N 40°33' E 014°14'6 4.6
2017-Oct-15 09:11N 40°34' E 014°22'6 4.7
2017-Oct-15 08:01N 40°35' E 014°29'126.3
2017-Oct-15 07:57N 40°35' E 014°28'810.3
2017-Oct-15 07:11N 40°35' E 014°17'423.1
2017-Oct-15 07:00N 40°38' E 014°21'4 0.3
2017-Oct-14 16:23N 40°40' E 014°25'7 6.6
2017-Oct-14 15:22N 40°34' E 014°22'5 5.2
2017-Oct-14 14:19N 40°37' E 014°28'1014.0
2017-Oct-14 13:37N 40°35' E 014°16'325.2
2017-Oct-14 13:31N 40°38' E 014°16'6 2.7
2017-Oct-14 11:09N 40°45' E 014°17'425.3
2017-Oct-14 11:00N 40°41' E 014°16'9 4.9
2017-Oct-14 09:05N 40°35' E 014°25'3 3.0
2017-Oct-14 08:01N 40°36' E 014°30'026.5
2017-Oct-14 08:00N 40°36' E 014°29'810.2
2017-Oct-14 07:11N 40°36' E 014°18'421.3
2017-Oct-14 07:00N 40°38' E 014°22'2 0.1
2017-Oct-13 16:28N 40°40' E 014°24'6 5.5
2017-Oct-13 15:24N 40°34' E 014°22'5 4.6
2017-Oct-13 14:14N 40°36' E 014°28'911.0
2017-Oct-13 13:23N 40°35' E 014°16'924.3
2017-Oct-13 13:00N 40°44' E 014°17'2 1.5
2017-Oct-13 11:18N 40°47' E 014°17'724.6
2017-Oct-13 11:00N 40°40' E 014°17'8 4.4
2017-Oct-13 09:09N 40°35' E 014°25'4 3.6
2017-Oct-13 08:05N 40°36' E 014°30'226.1
2017-Oct-13 08:00N 40°35' E 014°27'7 8.6
2017-Oct-13 07:10N 40°36' E 014°18'421.5
2017-Oct-13 07:00N 40°38' E 014°22'2 0.2
2017-Oct-12 16:24N 40°40' E 014°24'5 5.2
2017-Oct-12 15:22N 40°34' E 014°25'4 3.9
2017-Oct-12 14:18N 40°37' E 014°29'8 5.0
2017-Oct-12 12:40N 40°36' E 014°18'423.0
2017-Oct-12 12:30N 40°38' E 014°22'8 3.6
2017-Oct-12 10:23N 40°33' E 014°14'0 0.0
2017-Oct-12 10:00N 40°33' E 014°14'8 9.5
2017-Oct-12 09:08N 40°35' E 014°25'2 1.4
2017-Oct-12 07:55N 40°35' E 014°27'7 9.3
2017-Oct-12 07:09N 40°36' E 014°18'323.2
2017-Oct-12 07:01N 40°38' E 014°22'3 0.1
2017-Oct-10 16:20N 40°40' E 014°25'514.7
2017-Oct-10 16:00N 40°38' E 014°20'4 5.8
2017-Oct-10 15:20N 40°34' E 014°22'4 1.4
2017-Oct-10 12:42N 40°36' E 014°18'421.7
2017-Oct-10 12:30N 40°38' E 014°23'4 1.1
2017-Oct-10 09:12N 40°34' E 014°22'6 4.7
2017-Oct-10 08:01N 40°36' E 014°29'125.6
2017-Oct-10 07:58N 40°35' E 014°28'8 9.6
2017-Oct-10 07:10N 40°36' E 014°17'425.3
2017-Oct-10 07:01N 40°38' E 014°21'4 0.2
2017-Oct-09 16:23N 40°40' E 014°25'  
Track history (hours):
 
Tides and Currents Weather Stations Pressure Air Temp Water Temp Dewpoint Dewpoint Depression Visibility Wind Speed Wind Dir Waves Ship Positions

Ischia Jet

Last reported at 2017-Oct-19 16:20 UTC. Time now 2017-Oct-19 20:15 UTC.
Position N 40°40' E 014°24'.

Length 42 m; draft 1.2 m.

Type: Passenger vessel. MMSI: 247048700.

Date/timePositionNaut miles runAvg speedWind from/ knotsBaromVisibWave heightAir tempDewpointWater temp
2017-Oct-19 16:20N 40°40' E 014°24'412.8
2017-Oct-19 16:00N 40°37' E 014°20'4 5.4
2017-Oct-19 15:19N 40°34' E 014°22'5 5.0
2017-Oct-19 14:14N 40°37' E 014°28'8 5.1
2017-Oct-19 12:42N 40°36' E 014°18'418.2
2017-Oct-19 12:30N 40°38' E 014°23'3 1.0
2017-Oct-19 09:06N 40°35' E 014°24'4 3.8
2017-Oct-19 07:59N 40°36' E 014°30'910.2
2017-Oct-19 07:07N 40°36' E 014°18'325.5
2017-Oct-19 07:01N 40°38' E 014°21'3 0.2
2017-Oct-18 16:20N 40°40' E 014°24'5 4.8
2017-Oct-18 15:16N 40°35' E 014°26'0 0.1
2017-Oct-18 09:06N 40°35' E 014°25'2 2.0
2017-Oct-18 07:56N 40°35' E 014°28'8 9.4
2017-Oct-18 07:07N 40°36' E 014°18'326.0
2017-Oct-18 07:00N 40°38' E 014°21'4 0.3
2017-Oct-17 16:23N 40°40' E 014°25'514.2
2017-Oct-17 16:01N 40°37' E 014°19'5 7.2
2017-Oct-17 15:18N 40°35' E 014°25'4 3.8
2017-Oct-17 14:15N 40°37' E 014°29'8 3.3
2017-Oct-17 11:49N 40°36' E 014°18'412.4
2017-Oct-17 11:30N 40°38' E 014°23'4 1.5
2017-Oct-17 09:13N 40°34' E 014°23'6 4.7
2017-Oct-17 08:00N 40°36' E 014°30'910.7
2017-Oct-17 07:09N 40°36' E 014°18'323.6
2017-Oct-17 07:00N 40°38' E 014°22'2 0.2
2017-Oct-16 16:21N 40°40' E 014°24'411.8
2017-Oct-16 16:00N 40°38' E 014°20'5 7.0
2017-Oct-16 15:19N 40°35' E 014°25'4 3.4
2017-Oct-16 14:12N 40°37' E 014°29'1012.0
2017-Oct-16 13:23N 40°35' E 014°16'1025.2
2017-Oct-16 13:01N 40°45' E 014°17'0 0.2
2017-Oct-16 11:10N 40°45' E 014°16'425.3
2017-Oct-16 11:00N 40°41' E 014°16'9 4.8
2017-Oct-16 09:06N 40°35' E 014°25'3 2.6
2017-Oct-16 07:58N 40°35' E 014°29'910.7
2017-Oct-16 07:10N 40°36' E 014°17'425.0
2017-Oct-16 07:00N 40°38' E 014°21'3 0.2
2017-Oct-15 16:23N 40°40' E 014°24'5 4.8
2017-Oct-15 15:17N 40°35' E 014°25'8 4.7
2017-Oct-15 13:33N 40°33' E 014°14'0 0.0
2017-Oct-15 13:30N 40°33' E 014°14'0 0.0
2017-Oct-15 13:00N 40°33' E 014°14'714.3
2017-Oct-15 12:31N 40°38' E 014°21'510.8
2017-Oct-15 12:01N 40°35' E 014°16'2 3.4
2017-Oct-15 11:30N 40°33' E 014°14'0 0.0
2017-Oct-15 11:00N 40°33' E 014°14'0 0.0
2017-Oct-15 10:30N 40°33' E 014°14'6 4.6
2017-Oct-15 09:11N 40°34' E 014°22'6 4.7
2017-Oct-15 08:01N 40°35' E 014°29'126.3
2017-Oct-15 07:57N 40°35' E 014°28'810.3
2017-Oct-15 07:11N 40°35' E 014°17'423.1
2017-Oct-15 07:00N 40°38' E 014°21'4 0.3
2017-Oct-14 16:23N 40°40' E 014°25'7 6.6
2017-Oct-14 15:22N 40°34' E 014°22'5 5.2
2017-Oct-14 14:19N 40°37' E 014°28'1014.0
2017-Oct-14 13:37N 40°35' E 014°16'325.2
2017-Oct-14 13:31N 40°38' E 014°16'6 2.7
2017-Oct-14 11:09N 40°45' E 014°17'425.3
2017-Oct-14 11:00N 40°41' E 014°16'9 4.9
2017-Oct-14 09:05N 40°35' E 014°25'3 3.0
2017-Oct-14 08:01N 40°36' E 014°30'026.5
2017-Oct-14 08:00N 40°36' E 014°29'810.2
2017-Oct-14 07:11N 40°36' E 014°18'421.3
2017-Oct-14 07:00N 40°38' E 014°22'2 0.1
2017-Oct-13 16:28N 40°40' E 014°24'6 5.5
2017-Oct-13 15:24N 40°34' E 014°22'5 4.6
2017-Oct-13 14:14N 40°36' E 014°28'911.0
2017-Oct-13 13:23N 40°35' E 014°16'924.3
2017-Oct-13 13:00N 40°44' E 014°17'2 1.5
2017-Oct-13 11:18N 40°47' E 014°17'724.6
2017-Oct-13 11:00N 40°40' E 014°17'8 4.4
2017-Oct-13 09:09N 40°35' E 014°25'4 3.6
2017-Oct-13 08:05N 40°36' E 014°30'226.1
2017-Oct-13 08:00N 40°35' E 014°27'7 8.6
2017-Oct-13 07:10N 40°36' E 014°18'421.5
2017-Oct-13 07:00N 40°38' E 014°22'2 0.2
2017-Oct-12 16:24N 40°40' E 014°24'5 5.2
2017-Oct-12 15:22N 40°34' E 014°25'4 3.9
2017-Oct-12 14:18N 40°37' E 014°29'8 5.0
2017-Oct-12 12:40N 40°36' E 014°18'423.0
2017-Oct-12 12:30N 40°38' E 014°22'8 3.6
2017-Oct-12 10:23N 40°33' E 014°14'0 0.0
2017-Oct-12 10:00N 40°33' E 014°14'8 9.5
2017-Oct-12 09:08N 40°35' E 014°25'2 1.4
2017-Oct-12 07:55N 40°35' E 014°27'7 9.3
2017-Oct-12 07:09N 40°36' E 014°18'323.2
2017-Oct-12 07:01N 40°38' E 014°22'3 0.1
2017-Oct-10 16:20N 40°40' E 014°25'514.7
2017-Oct-10 16:00N 40°38' E 014°20'4 5.8
2017-Oct-10 15:20N 40°34' E 014°22'4 1.4
2017-Oct-10 12:42N 40°36' E 014°18'421.7
2017-Oct-10 12:30N 40°38' E 014°23'4 1.1
2017-Oct-10 09:12N 40°34' E 014°22'6 4.7
2017-Oct-10 08:01N 40°36' E 014°29'125.6
2017-Oct-10 07:58N 40°35' E 014°28'8 9.6
2017-Oct-10 07:10N 40°36' E 014°17'425.3
2017-Oct-10 07:01N 40°38' E 014°21'4 0.2
2017-Oct-09 16:23N 40°40' E 014°25'  

Dump ship's entire track history